sensor_id;sensor_type;location;lat;lon;timestamp;P1;durP1;ratioP1;P2;durP2;ratioP2
31438;SDS011;18062;48.872;9.220;2022-08-19T00:00:35;61.43;;;55.80;;
31438;SDS011;18062;48.872;9.220;2022-08-19T00:03:01;59.80;;;54.57;;
31438;SDS011;18062;48.872;9.220;2022-08-19T00:05:27;53.70;;;49.10;;
31438;SDS011;18062;48.872;9.220;2022-08-19T00:07:53;63.40;;;57.00;;
31438;SDS011;18062;48.872;9.220;2022-08-19T00:10:19;61.10;;;55.97;;
31438;SDS011;18062;48.872;9.220;2022-08-19T00:12:46;67.57;;;62.50;;
31438;SDS011;18062;48.872;9.220;2022-08-19T00:15:13;58.87;;;54.03;;
31438;SDS011;18062;48.872;9.220;2022-08-19T00:17:40;71.20;;;65.60;;
31438;SDS011;18062;48.872;9.220;2022-08-19T00:20:08;59.90;;;54.57;;
31438;SDS011;18062;48.872;9.220;2022-08-19T00:22:35;58.97;;;53.27;;
31438;SDS011;18062;48.872;9.220;2022-08-19T00:25:02;67.97;;;62.00;;
31438;SDS011;18062;48.872;9.220;2022-08-19T00:27:28;69.53;;;63.97;;
31438;SDS011;18062;48.872;9.220;2022-08-19T00:29:54;60.30;;;55.47;;
31438;SDS011;18062;48.872;9.220;2022-08-19T00:32:20;73.43;;;65.83;;
31438;SDS011;18062;48.872;9.220;2022-08-19T00:34:46;56.93;;;51.43;;
31438;SDS011;18062;48.872;9.220;2022-08-19T00:37:12;67.07;;;60.53;;
31438;SDS011;18062;48.872;9.220;2022-08-19T00:39:38;66.27;;;60.57;;
31438;SDS011;18062;48.872;9.220;2022-08-19T00:42:05;54.73;;;50.80;;
31438;SDS011;18062;48.872;9.220;2022-08-19T00:44:31;68.30;;;63.10;;
31438;SDS011;18062;48.872;9.220;2022-08-19T00:46:57;55.70;;;51.30;;
31438;SDS011;18062;48.872;9.220;2022-08-19T00:52:09;68.80;;;62.07;;
31438;SDS011;18062;48.872;9.220;2022-08-19T00:54:37;69.33;;;63.13;;
31438;SDS011;18062;48.872;9.220;2022-08-19T00:57:05;54.40;;;48.80;;
31438;SDS011;18062;48.872;9.220;2022-08-19T00:59:31;60.77;;;55.47;;
31438;SDS011;18062;48.872;9.220;2022-08-19T01:01:59;57.17;;;52.57;;
31438;SDS011;18062;48.872;9.220;2022-08-19T01:04:25;60.37;;;55.93;;
31438;SDS011;18062;48.872;9.220;2022-08-19T01:06:51;65.13;;;58.73;;
31438;SDS011;18062;48.872;9.220;2022-08-19T01:09:17;61.33;;;56.00;;
31438;SDS011;18062;48.872;9.220;2022-08-19T01:11:43;68.27;;;62.83;;
31438;SDS011;18062;48.872;9.220;2022-08-19T01:14:10;65.97;;;61.03;;
31438;SDS011;18062;48.872;9.220;2022-08-19T01:16:37;70.03;;;63.07;;
31438;SDS011;18062;48.872;9.220;2022-08-19T01:19:08;63.23;;;57.57;;
31438;SDS011;18062;48.872;9.220;2022-08-19T01:21:38;60.07;;;54.93;;
31438;SDS011;18062;48.872;9.220;2022-08-19T01:24:05;56.97;;;52.27;;
31438;SDS011;18062;48.872;9.220;2022-08-19T01:26:37;64.37;;;57.53;;
31438;SDS011;18062;48.872;9.220;2022-08-19T01:29:04;60.50;;;54.80;;
31438;SDS011;18062;48.872;9.220;2022-08-19T01:31:32;66.53;;;60.23;;
31438;SDS011;18062;48.872;9.220;2022-08-19T01:33:59;65.70;;;59.30;;
31438;SDS011;18062;48.872;9.220;2022-08-19T01:36:35;59.53;;;54.07;;
31438;SDS011;18062;48.872;9.220;2022-08-19T01:39:02;71.13;;;64.93;;
31438;SDS011;18062;48.872;9.220;2022-08-19T01:41:29;69.23;;;64.23;;
31438;SDS011;18062;48.872;9.220;2022-08-19T01:43:55;60.73;;;54.93;;
31438;SDS011;18062;48.872;9.220;2022-08-19T01:46:21;65.17;;;58.93;;
31438;SDS011;18062;48.872;9.220;2022-08-19T01:48:47;66.43;;;59.60;;
31438;SDS011;18062;48.872;9.220;2022-08-19T01:51:13;57.17;;;51.97;;
31438;SDS011;18062;48.872;9.220;2022-08-19T01:53:40;69.73;;;64.80;;
31438;SDS011;18062;48.872;9.220;2022-08-19T01:56:06;58.53;;;52.33;;
31438;SDS011;18062;48.872;9.220;2022-08-19T01:58:38;67.53;;;62.00;;
31438;SDS011;18062;48.872;9.220;2022-08-19T02:01:07;72.30;;;66.00;;
31438;SDS011;18062;48.872;9.220;2022-08-19T02:03:33;58.97;;;54.13;;
31438;SDS011;18062;48.872;9.220;2022-08-19T02:06:00;62.57;;;57.47;;
31438;SDS011;18062;48.872;9.220;2022-08-19T02:08:28;69.40;;;62.67;;
31438;SDS011;18062;48.872;9.220;2022-08-19T02:10:54;68.43;;;63.03;;
31438;SDS011;18062;48.872;9.220;2022-08-19T02:13:20;74.07;;;67.93;;
31438;SDS011;18062;48.872;9.220;2022-08-19T02:15:46;67.67;;;62.17;;
31438;SDS011;18062;48.872;9.220;2022-08-19T02:18:15;59.90;;;53.97;;
31438;SDS011;18062;48.872;9.220;2022-08-19T02:20:42;70.77;;;63.93;;
31438;SDS011;18062;48.872;9.220;2022-08-19T02:23:08;69.00;;;63.30;;
31438;SDS011;18062;48.872;9.220;2022-08-19T02:25:35;70.37;;;64.47;;
31438;SDS011;18062;48.872;9.220;2022-08-19T02:28:01;69.63;;;63.73;;
31438;SDS011;18062;48.872;9.220;2022-08-19T02:30:27;64.63;;;58.63;;
31438;SDS011;18062;48.872;9.220;2022-08-19T02:32:53;59.10;;;54.00;;
31438;SDS011;18062;48.872;9.220;2022-08-19T02:35:19;65.23;;;59.93;;
31438;SDS011;18062;48.872;9.220;2022-08-19T02:37:45;60.40;;;55.37;;
31438;SDS011;18062;48.872;9.220;2022-08-19T02:40:30;67.80;;;61.43;;
31438;SDS011;18062;48.872;9.220;2022-08-19T02:42:59;63.23;;;58.00;;
31438;SDS011;18062;48.872;9.220;2022-08-19T02:45:26;63.23;;;57.37;;
31438;SDS011;18062;48.872;9.220;2022-08-19T02:47:52;75.13;;;68.90;;
31438;SDS011;18062;48.872;9.220;2022-08-19T02:50:18;77.07;;;70.70;;
31438;SDS011;18062;48.872;9.220;2022-08-19T02:52:44;76.70;;;70.30;;
31438;SDS011;18062;48.872;9.220;2022-08-19T02:55:10;72.27;;;65.30;;
31438;SDS011;18062;48.872;9.220;2022-08-19T02:57:36;66.10;;;59.63;;
31438;SDS011;18062;48.872;9.220;2022-08-19T03:00:05;63.37;;;57.90;;
31438;SDS011;18062;48.872;9.220;2022-08-19T03:02:32;69.60;;;63.90;;
31438;SDS011;18062;48.872;9.220;2022-08-19T03:04:58;59.33;;;54.83;;
31438;SDS011;18062;48.872;9.220;2022-08-19T03:07:24;73.03;;;66.20;;
31438;SDS011;18062;48.872;9.220;2022-08-19T03:09:50;63.10;;;57.97;;
31438;SDS011;18062;48.872;9.220;2022-08-19T03:12:16;69.33;;;63.63;;
31438;SDS011;18062;48.872;9.220;2022-08-19T03:14:42;56.00;;;51.80;;
31438;SDS011;18062;48.872;9.220;2022-08-19T03:17:08;57.20;;;52.90;;
31438;SDS011;18062;48.872;9.220;2022-08-19T03:19:34;64.43;;;59.23;;
31438;SDS011;18062;48.872;9.220;2022-08-19T03:22:00;59.43;;;54.37;;
31438;SDS011;18062;48.872;9.220;2022-08-19T03:24:29;63.20;;;58.80;;
31438;SDS011;18062;48.872;9.220;2022-08-19T03:26:55;62.13;;;57.23;;
31438;SDS011;18062;48.872;9.220;2022-08-19T03:29:22;74.83;;;69.13;;
31438;SDS011;18062;48.872;9.220;2022-08-19T03:31:48;70.63;;;65.03;;
31438;SDS011;18062;48.872;9.220;2022-08-19T03:34:21;63.07;;;58.73;;
31438;SDS011;18062;48.872;9.220;2022-08-19T03:36:47;72.80;;;67.07;;
31438;SDS011;18062;48.872;9.220;2022-08-19T03:39:14;75.80;;;69.73;;
31438;SDS011;18062;48.872;9.220;2022-08-19T03:41:41;66.97;;;61.43;;
31438;SDS011;18062;48.872;9.220;2022-08-19T03:44:08;62.73;;;57.20;;
31438;SDS011;18062;48.872;9.220;2022-08-19T03:46:34;66.37;;;60.90;;
31438;SDS011;18062;48.872;9.220;2022-08-19T03:49:02;66.70;;;61.43;;
31438;SDS011;18062;48.872;9.220;2022-08-19T03:51:38;81.87;;;74.63;;
31438;SDS011;18062;48.872;9.220;2022-08-19T03:54:06;71.87;;;65.67;;
31438;SDS011;18062;48.872;9.220;2022-08-19T03:56:35;75.43;;;68.90;;
31438;SDS011;18062;48.872;9.220;2022-08-19T03:59:03;58.37;;;52.77;;
31438;SDS011;18062;48.872;9.220;2022-08-19T04:01:29;66.57;;;61.33;;
31438;SDS011;18062;48.872;9.220;2022-08-19T04:03:55;64.67;;;59.23;;
31438;SDS011;18062;48.872;9.220;2022-08-19T04:06:23;65.20;;;60.37;;
31438;SDS011;18062;48.872;9.220;2022-08-19T04:08:50;73.60;;;67.80;;
31438;SDS011;18062;48.872;9.220;2022-08-19T04:11:17;70.37;;;64.10;;
31438;SDS011;18062;48.872;9.220;2022-08-19T04:13:46;76.40;;;69.47;;
31438;SDS011;18062;48.872;9.220;2022-08-19T04:16:12;68.83;;;63.03;;
31438;SDS011;18062;48.872;9.220;2022-08-19T04:18:39;63.03;;;57.43;;
31438;SDS011;18062;48.872;9.220;2022-08-19T04:21:05;73.40;;;68.30;;
31438;SDS011;18062;48.872;9.220;2022-08-19T04:23:32;72.23;;;65.73;;
31438;SDS011;18062;48.872;9.220;2022-08-19T04:25:58;75.70;;;70.27;;
31438;SDS011;18062;48.872;9.220;2022-08-19T04:28:24;67.50;;;60.97;;
31438;SDS011;18062;48.872;9.220;2022-08-19T04:30:52;64.40;;;59.40;;
31438;SDS011;18062;48.872;9.220;2022-08-19T04:33:20;71.30;;;65.17;;
31438;SDS011;18062;48.872;9.220;2022-08-19T04:35:47;70.40;;;64.60;;
31438;SDS011;18062;48.872;9.220;2022-08-19T04:38:14;66.40;;;61.03;;
31438;SDS011;18062;48.872;9.220;2022-08-19T04:40:42;71.77;;;65.63;;
31438;SDS011;18062;48.872;9.220;2022-08-19T04:43:27;74.87;;;68.27;;
31438;SDS011;18062;48.872;9.220;2022-08-19T04:45:53;67.47;;;62.03;;
31438;SDS011;18062;48.872;9.220;2022-08-19T04:48:19;66.23;;;60.63;;
31438;SDS011;18062;48.872;9.220;2022-08-19T04:50:50;67.47;;;61.67;;
31438;SDS011;18062;48.872;9.220;2022-08-19T04:53:21;69.23;;;63.90;;
31438;SDS011;18062;48.872;9.220;2022-08-19T04:55:47;65.33;;;59.63;;
31438;SDS011;18062;48.872;9.220;2022-08-19T04:58:13;64.20;;;58.83;;
31438;SDS011;18062;48.872;9.220;2022-08-19T05:00:40;61.70;;;56.17;;
31438;SDS011;18062;48.872;9.220;2022-08-19T05:03:06;55.17;;;49.80;;
31438;SDS011;18062;48.872;9.220;2022-08-19T05:05:33;64.93;;;58.70;;
31438;SDS011;18062;48.872;9.220;2022-08-19T05:07:59;59.17;;;54.80;;
31438;SDS011;18062;48.872;9.220;2022-08-19T05:10:25;56.50;;;51.50;;
31438;SDS011;18062;48.872;9.220;2022-08-19T05:12:51;67.10;;;61.83;;
31438;SDS011;18062;48.872;9.220;2022-08-19T05:15:17;62.23;;;57.93;;
31438;SDS011;18062;48.872;9.220;2022-08-19T05:17:44;57.97;;;53.27;;
31438;SDS011;18062;48.872;9.220;2022-08-19T05:20:30;65.17;;;56.33;;
31438;SDS011;18062;48.872;9.220;2022-08-19T05:23:14;71.07;;;63.30;;
31438;SDS011;18062;48.872;9.220;2022-08-19T05:25:41;67.60;;;61.67;;
31438;SDS011;18062;48.872;9.220;2022-08-19T05:28:08;80.17;;;74.27;;
31438;SDS011;18062;48.872;9.220;2022-08-19T05:30:34;66.93;;;61.70;;
31438;SDS011;18062;48.872;9.220;2022-08-19T05:33:00;62.47;;;56.87;;
31438;SDS011;18062;48.872;9.220;2022-08-19T05:35:26;56.40;;;51.37;;
31438;SDS011;18062;48.872;9.220;2022-08-19T05:37:53;69.23;;;62.37;;
31438;SDS011;18062;48.872;9.220;2022-08-19T05:40:19;57.07;;;51.17;;
31438;SDS011;18062;48.872;9.220;2022-08-19T05:42:45;74.03;;;68.13;;
31438;SDS011;18062;48.872;9.220;2022-08-19T05:45:11;58.17;;;54.07;;
31438;SDS011;18062;48.872;9.220;2022-08-19T05:47:37;64.07;;;59.60;;
31438;SDS011;18062;48.872;9.220;2022-08-19T05:50:03;62.20;;;57.17;;
31438;SDS011;18062;48.872;9.220;2022-08-19T05:52:29;59.83;;;54.40;;
31438;SDS011;18062;48.872;9.220;2022-08-19T05:54:55;76.40;;;68.90;;
31438;SDS011;18062;48.872;9.220;2022-08-19T05:57:22;65.10;;;59.83;;
31438;SDS011;18062;48.872;9.220;2022-08-19T05:59:48;66.93;;;61.30;;
31438;SDS011;18062;48.872;9.220;2022-08-19T06:02:16;70.43;;;64.60;;
31438;SDS011;18062;48.872;9.220;2022-08-19T06:04:42;61.63;;;55.80;;
31438;SDS011;18062;48.872;9.220;2022-08-19T06:07:08;76.00;;;69.63;;
31438;SDS011;18062;48.872;9.220;2022-08-19T06:09:34;65.23;;;59.90;;
31438;SDS011;18062;48.872;9.220;2022-08-19T06:12:00;54.20;;;48.77;;
31438;SDS011;18062;48.872;9.220;2022-08-19T06:14:32;56.87;;;51.27;;
31438;SDS011;18062;48.872;9.220;2022-08-19T06:16:59;71.83;;;65.53;;
31438;SDS011;18062;48.872;9.220;2022-08-19T06:19:27;71.97;;;66.07;;
31438;SDS011;18062;48.872;9.220;2022-08-19T06:21:55;63.10;;;57.30;;
31438;SDS011;18062;48.872;9.220;2022-08-19T06:24:22;60.50;;;55.27;;
31438;SDS011;18062;48.872;9.220;2022-08-19T06:26:49;62.40;;;57.70;;
31438;SDS011;18062;48.872;9.220;2022-08-19T06:29:17;51.07;;;46.43;;
31438;SDS011;18062;48.872;9.220;2022-08-19T06:31:44;64.43;;;58.40;;
31438;SDS011;18062;48.872;9.220;2022-08-19T06:34:10;58.90;;;53.37;;
31438;SDS011;18062;48.872;9.220;2022-08-19T06:36:38;63.37;;;56.43;;
31438;SDS011;18062;48.872;9.220;2022-08-19T06:39:10;57.50;;;52.80;;
31438;SDS011;18062;48.872;9.220;2022-08-19T06:41:37;61.83;;;55.73;;
31438;SDS011;18062;48.872;9.220;2022-08-19T06:44:03;57.80;;;52.17;;
31438;SDS011;18062;48.872;9.220;2022-08-19T06:46:29;61.73;;;55.53;;
31438;SDS011;18062;48.872;9.220;2022-08-19T06:48:55;66.60;;;59.57;;
31438;SDS011;18062;48.872;9.220;2022-08-19T06:51:22;59.20;;;53.83;;
31438;SDS011;18062;48.872;9.220;2022-08-19T06:53:49;57.77;;;52.67;;
31438;SDS011;18062;48.872;9.220;2022-08-19T06:56:17;57.53;;;51.23;;
31438;SDS011;18062;48.872;9.220;2022-08-19T06:58:43;59.40;;;54.17;;
31438;SDS011;18062;48.872;9.220;2022-08-19T07:01:09;55.47;;;50.43;;
31438;SDS011;18062;48.872;9.220;2022-08-19T07:03:37;52.37;;;47.40;;
31438;SDS011;18062;48.872;9.220;2022-08-19T07:06:07;64.27;;;58.93;;
31438;SDS011;18062;48.872;9.220;2022-08-19T07:08:34;60.50;;;55.33;;
31438;SDS011;18062;48.872;9.220;2022-08-19T07:11:01;61.83;;;56.03;;
31438;SDS011;18062;48.872;9.220;2022-08-19T07:13:28;50.87;;;45.63;;
31438;SDS011;18062;48.872;9.220;2022-08-19T07:15:54;63.47;;;57.83;;
31438;SDS011;18062;48.872;9.220;2022-08-19T07:18:20;62.47;;;56.77;;
31438;SDS011;18062;48.872;9.220;2022-08-19T07:20:49;64.40;;;58.20;;
31438;SDS011;18062;48.872;9.220;2022-08-19T07:23:15;59.40;;;55.00;;
31438;SDS011;18062;48.872;9.220;2022-08-19T07:25:41;56.37;;;51.20;;
31438;SDS011;18062;48.872;9.220;2022-08-19T07:28:08;46.93;;;42.83;;
31438;SDS011;18062;48.872;9.220;2022-08-19T07:30:37;58.33;;;53.00;;
31438;SDS011;18062;48.872;9.220;2022-08-19T07:33:05;55.13;;;50.40;;
31438;SDS011;18062;48.872;9.220;2022-08-19T07:35:31;57.17;;;51.13;;
31438;SDS011;18062;48.872;9.220;2022-08-19T07:37:57;60.77;;;55.33;;
31438;SDS011;18062;48.872;9.220;2022-08-19T07:40:27;57.57;;;52.87;;
31438;SDS011;18062;48.872;9.220;2022-08-19T07:42:53;54.03;;;49.27;;
31438;SDS011;18062;48.872;9.220;2022-08-19T07:45:19;52.70;;;47.57;;
31438;SDS011;18062;48.872;9.220;2022-08-19T07:47:45;65.03;;;58.90;;
31438;SDS011;18062;48.872;9.220;2022-08-19T07:50:11;54.17;;;49.87;;
31438;SDS011;18062;48.872;9.220;2022-08-19T07:52:38;71.87;;;65.47;;
31438;SDS011;18062;48.872;9.220;2022-08-19T07:55:04;66.77;;;60.67;;
31438;SDS011;18062;48.872;9.220;2022-08-19T07:57:31;62.67;;;57.47;;
31438;SDS011;18062;48.872;9.220;2022-08-19T07:59:57;71.70;;;65.90;;
31438;SDS011;18062;48.872;9.220;2022-08-19T08:02:24;62.93;;;57.60;;
31438;SDS011;18062;48.872;9.220;2022-08-19T08:04:50;61.67;;;56.57;;
31438;SDS011;18062;48.872;9.220;2022-08-19T08:07:34;54.73;;;49.93;;
31438;SDS011;18062;48.872;9.220;2022-08-19T08:10:19;66.73;;;60.30;;
31438;SDS011;18062;48.872;9.220;2022-08-19T08:12:45;57.17;;;52.63;;
31438;SDS011;18062;48.872;9.220;2022-08-19T08:15:12;63.47;;;58.23;;
31438;SDS011;18062;48.872;9.220;2022-08-19T08:17:41;60.43;;;54.93;;
31438;SDS011;18062;48.872;9.220;2022-08-19T08:20:07;64.17;;;58.37;;
31438;SDS011;18062;48.872;9.220;2022-08-19T08:22:33;63.03;;;58.20;;
31438;SDS011;18062;48.872;9.220;2022-08-19T08:25:19;60.80;;;55.30;;
31438;SDS011;18062;48.872;9.220;2022-08-19T08:27:50;64.30;;;58.97;;
31438;SDS011;18062;48.872;9.220;2022-08-19T08:30:19;79.17;;;73.60;;
31438;SDS011;18062;48.872;9.220;2022-08-19T08:32:45;63.43;;;58.97;;
31438;SDS011;18062;48.872;9.220;2022-08-19T08:35:13;61.20;;;56.63;;
31438;SDS011;18062;48.872;9.220;2022-08-19T08:37:39;58.57;;;54.27;;
31438;SDS011;18062;48.872;9.220;2022-08-19T08:40:28;57.43;;;52.73;;
31438;SDS011;18062;48.872;9.220;2022-08-19T08:43:00;73.57;;;67.83;;
31438;SDS011;18062;48.872;9.220;2022-08-19T08:45:30;66.77;;;61.67;;
31438;SDS011;18062;48.872;9.220;2022-08-19T08:47:56;61.53;;;56.53;;
31438;SDS011;18062;48.872;9.220;2022-08-19T08:52:55;68.20;;;63.67;;
31438;SDS011;18062;48.872;9.220;2022-08-19T08:55:23;54.03;;;50.00;;
31438;SDS011;18062;48.872;9.220;2022-08-19T08:57:53;69.53;;;63.87;;
31438;SDS011;18062;48.872;9.220;2022-08-19T09:02:49;60.07;;;55.37;;
31438;SDS011;18062;48.872;9.220;2022-08-19T09:05:16;47.87;;;43.70;;
31438;SDS011;18062;48.872;9.220;2022-08-19T09:12:49;55.63;;;51.50;;
31438;SDS011;18062;48.872;9.220;2022-08-19T09:15:22;43.70;;;40.60;;
31438;SDS011;18062;48.872;9.220;2022-08-19T09:17:52;50.17;;;45.50;;
31438;SDS011;18062;48.872;9.220;2022-08-19T09:20:19;53.00;;;47.53;;
31438;SDS011;18062;48.872;9.220;2022-08-19T09:22:46;49.97;;;45.03;;
31438;SDS011;18062;48.872;9.220;2022-08-19T09:25:15;52.03;;;47.53;;
31438;SDS011;18062;48.872;9.220;2022-08-19T09:27:41;53.30;;;47.63;;
31438;SDS011;18062;48.872;9.220;2022-08-19T09:30:09;54.67;;;49.43;;
31438;SDS011;18062;48.872;9.220;2022-08-19T09:32:35;49.77;;;44.73;;
31438;SDS011;18062;48.872;9.220;2022-08-19T09:35:04;58.57;;;53.00;;
31438;SDS011;18062;48.872;9.220;2022-08-19T09:37:31;52.90;;;48.13;;
31438;SDS011;18062;48.872;9.220;2022-08-19T09:39:57;59.70;;;48.57;;
31438;SDS011;18062;48.872;9.220;2022-08-19T09:42:23;42.40;;;38.87;;
31438;SDS011;18062;48.872;9.220;2022-08-19T09:44:49;52.53;;;47.07;;
31438;SDS011;18062;48.872;9.220;2022-08-19T09:47:15;46.17;;;41.47;;
31438;SDS011;18062;48.872;9.220;2022-08-19T09:49:41;48.27;;;44.23;;
31438;SDS011;18062;48.872;9.220;2022-08-19T09:52:08;62.17;;;55.83;;
31438;SDS011;18062;48.872;9.220;2022-08-19T09:54:34;50.23;;;45.07;;
31438;SDS011;18062;48.872;9.220;2022-08-19T09:57:00;48.83;;;43.80;;
31438;SDS011;18062;48.872;9.220;2022-08-19T09:59:27;56.00;;;50.63;;
31438;SDS011;18062;48.872;9.220;2022-08-19T10:01:53;57.20;;;42.63;;
31438;SDS011;18062;48.872;9.220;2022-08-19T10:04:19;49.47;;;44.43;;
31438;SDS011;18062;48.872;9.220;2022-08-19T10:07:08;56.47;;;46.83;;
31438;SDS011;18062;48.872;9.220;2022-08-19T10:09:34;48.10;;;43.20;;
31438;SDS011;18062;48.872;9.220;2022-08-19T10:12:01;51.70;;;47.17;;
31438;SDS011;18062;48.872;9.220;2022-08-19T10:14:28;53.43;;;43.43;;
31438;SDS011;18062;48.872;9.220;2022-08-19T10:16:54;51.80;;;46.93;;
31438;SDS011;18062;48.872;9.220;2022-08-19T10:19:21;62.50;;;56.80;;
31438;SDS011;18062;48.872;9.220;2022-08-19T10:21:47;58.27;;;51.77;;
31438;SDS011;18062;48.872;9.220;2022-08-19T10:24:13;59.13;;;50.50;;
31438;SDS011;18062;48.872;9.220;2022-08-19T10:26:39;49.03;;;44.07;;
31438;SDS011;18062;48.872;9.220;2022-08-19T10:29:13;53.67;;;48.30;;
31438;SDS011;18062;48.872;9.220;2022-08-19T10:31:40;56.67;;;44.08;;
31438;SDS011;18062;48.872;9.220;2022-08-19T10:34:07;51.93;;;47.20;;
31438;SDS011;18062;48.872;9.220;2022-08-19T10:36:34;48.35;;;43.47;;
31438;SDS011;18062;48.872;9.220;2022-08-19T10:39:04;54.83;;;49.75;;
31438;SDS011;18062;48.872;9.220;2022-08-19T10:41:31;44.87;;;40.07;;
31438;SDS011;18062;48.872;9.220;2022-08-19T10:43:59;44.08;;;39.92;;
31438;SDS011;18062;48.872;9.220;2022-08-19T10:46:26;52.27;;;47.57;;
31438;SDS011;18062;48.872;9.220;2022-08-19T10:48:53;53.07;;;41.47;;
31438;SDS011;18062;48.872;9.220;2022-08-19T10:51:20;59.97;;;52.13;;
31438;SDS011;18062;48.872;9.220;2022-08-19T10:54:05;50.57;;;45.50;;
31438;SDS011;18062;48.872;9.220;2022-08-19T10:56:33;55.83;;;49.93;;
31438;SDS011;18062;48.872;9.220;2022-08-19T10:59:18;52.17;;;43.70;;
31438;SDS011;18062;48.872;9.220;2022-08-19T11:01:45;42.37;;;38.83;;
31438;SDS011;18062;48.872;9.220;2022-08-19T11:04:12;56.85;;;46.08;;
31438;SDS011;18062;48.872;9.220;2022-08-19T11:06:41;50.58;;;44.92;;
31438;SDS011;18062;48.872;9.220;2022-08-19T11:09:08;63.05;;;44.30;;
31438;SDS011;18062;48.872;9.220;2022-08-19T11:11:35;48.28;;;43.75;;
31438;SDS011;18062;48.872;9.220;2022-08-19T11:14:05;40.20;;;36.60;;
31438;SDS011;18062;48.872;9.220;2022-08-19T11:16:31;58.00;;;43.28;;
31438;SDS011;18062;48.872;9.220;2022-08-19T11:18:58;50.22;;;40.58;;
31438;SDS011;18062;48.872;9.220;2022-08-19T11:21:25;49.42;;;40.53;;
31438;SDS011;18062;48.872;9.220;2022-08-19T11:23:53;52.47;;;33.67;;
31438;SDS011;18062;48.872;9.220;2022-08-19T11:26:21;68.88;;;35.75;;
31438;SDS011;18062;48.872;9.220;2022-08-19T11:28:47;55.70;;;39.25;;
31438;SDS011;18062;48.872;9.220;2022-08-19T11:31:15;58.05;;;45.08;;
31438;SDS011;18062;48.872;9.220;2022-08-19T11:33:41;57.55;;;39.60;;
31438;SDS011;18062;48.872;9.220;2022-08-19T11:36:08;64.32;;;39.10;;
31438;SDS011;18062;48.872;9.220;2022-08-19T11:38:34;65.07;;;37.47;;
31438;SDS011;18062;48.872;9.220;2022-08-19T11:41:02;65.95;;;43.15;;
31438;SDS011;18062;48.872;9.220;2022-08-19T11:43:28;61.30;;;43.58;;
31438;SDS011;18062;48.872;9.220;2022-08-19T11:45:55;52.40;;;35.08;;
31438;SDS011;18062;48.872;9.220;2022-08-19T11:48:21;68.60;;;41.20;;
31438;SDS011;18062;48.872;9.220;2022-08-19T11:50:48;45.75;;;40.50;;
31438;SDS011;18062;48.872;9.220;2022-08-19T11:53:14;49.58;;;35.45;;
31438;SDS011;18062;48.872;9.220;2022-08-19T11:55:40;67.57;;;44.47;;
31438;SDS011;18062;48.872;9.220;2022-08-19T11:58:07;50.50;;;42.20;;
31438;SDS011;18062;48.872;9.220;2022-08-19T12:00:34;53.45;;;44.45;;
31438;SDS011;18062;48.872;9.220;2022-08-19T12:03:01;46.15;;;41.38;;
31438;SDS011;18062;48.872;9.220;2022-08-19T12:05:27;46.97;;;40.00;;
31438;SDS011;18062;48.872;9.220;2022-08-19T12:07:53;51.93;;;44.43;;
31438;SDS011;18062;48.872;9.220;2022-08-19T12:10:20;52.33;;;47.20;;
31438;SDS011;18062;48.872;9.220;2022-08-19T12:12:46;46.30;;;41.47;;
31438;SDS011;18062;48.872;9.220;2022-08-19T12:15:12;53.07;;;47.80;;
31438;SDS011;18062;48.872;9.220;2022-08-19T12:17:39;64.67;;;46.23;;
31438;SDS011;18062;48.872;9.220;2022-08-19T12:20:06;51.72;;;38.35;;
31438;SDS011;18062;48.872;9.220;2022-08-19T12:22:34;58.30;;;51.23;;
31438;SDS011;18062;48.872;9.220;2022-08-19T12:25:00;56.22;;;39.90;;
31438;SDS011;18062;48.872;9.220;2022-08-19T12:27:26;52.92;;;47.85;;
31438;SDS011;18062;48.872;9.220;2022-08-19T12:29:52;50.03;;;38.45;;
31438;SDS011;18062;48.872;9.220;2022-08-19T12:32:18;46.10;;;41.50;;
31438;SDS011;18062;48.872;9.220;2022-08-19T12:34:44;42.60;;;38.88;;
31438;SDS011;18062;48.872;9.220;2022-08-19T12:37:12;62.47;;;45.60;;
31438;SDS011;18062;48.872;9.220;2022-08-19T12:39:39;61.28;;;44.88;;
31438;SDS011;18062;48.872;9.220;2022-08-19T12:42:06;59.92;;;36.88;;
31438;SDS011;18062;48.872;9.220;2022-08-19T12:44:33;52.33;;;33.85;;
31438;SDS011;18062;48.872;9.220;2022-08-19T12:46:59;54.78;;;35.88;;
31438;SDS011;18062;48.872;9.220;2022-08-19T12:49:29;48.75;;;35.67;;
31438;SDS011;18062;48.872;9.220;2022-08-19T12:51:58;51.90;;;37.45;;
31438;SDS011;18062;48.872;9.220;2022-08-19T12:54:25;56.90;;;43.90;;
31438;SDS011;18062;48.872;9.220;2022-08-19T12:56:51;57.17;;;46.30;;
31438;SDS011;18062;48.872;9.220;2022-08-19T12:59:17;60.00;;;47.05;;
31438;SDS011;18062;48.872;9.220;2022-08-19T13:01:43;53.63;;;45.70;;
31438;SDS011;18062;48.872;9.220;2022-08-19T13:04:10;50.45;;;45.38;;
31438;SDS011;18062;48.872;9.220;2022-08-19T13:06:36;51.08;;;45.90;;
31438;SDS011;18062;48.872;9.220;2022-08-19T13:09:03;52.40;;;41.88;;
31438;SDS011;18062;48.872;9.220;2022-08-19T13:11:29;47.20;;;42.83;;
31438;SDS011;18062;48.872;9.220;2022-08-19T13:13:58;50.25;;;45.72;;
31438;SDS011;18062;48.872;9.220;2022-08-19T13:16:25;51.80;;;45.15;;
31438;SDS011;18062;48.872;9.220;2022-08-19T13:18:53;53.17;;;47.63;;
31438;SDS011;18062;48.872;9.220;2022-08-19T13:21:19;54.05;;;49.17;;
31438;SDS011;18062;48.872;9.220;2022-08-19T13:23:46;60.73;;;41.80;;
31438;SDS011;18062;48.872;9.220;2022-08-19T13:26:13;70.83;;;48.50;;
31438;SDS011;18062;48.872;9.220;2022-08-19T13:28:40;49.90;;;45.65;;
31438;SDS011;18062;48.872;9.220;2022-08-19T13:31:25;45.97;;;39.13;;
31438;SDS011;18062;48.872;9.220;2022-08-19T13:34:10;46.23;;;41.67;;
31438;SDS011;18062;48.872;9.220;2022-08-19T13:36:36;47.70;;;39.00;;
31438;SDS011;18062;48.872;9.220;2022-08-19T13:39:03;53.20;;;47.97;;
31438;SDS011;18062;48.872;9.220;2022-08-19T13:41:29;52.07;;;47.10;;
31438;SDS011;18062;48.872;9.220;2022-08-19T13:43:56;59.10;;;43.00;;
31438;SDS011;18062;48.872;9.220;2022-08-19T13:46:22;57.20;;;51.13;;
31438;SDS011;18062;48.872;9.220;2022-08-19T13:48:48;47.67;;;43.60;;
31438;SDS011;18062;48.872;9.220;2022-08-19T13:51:15;46.33;;;41.73;;
31438;SDS011;18062;48.872;9.220;2022-08-19T13:53:41;49.83;;;45.27;;
31438;SDS011;18062;48.872;9.220;2022-08-19T13:56:09;63.23;;;55.83;;
31438;SDS011;18062;48.872;9.220;2022-08-19T13:58:36;59.90;;;54.47;;
31438;SDS011;18062;48.872;9.220;2022-08-19T14:01:02;54.70;;;48.93;;
31438;SDS011;18062;48.872;9.220;2022-08-19T14:03:28;61.90;;;55.87;;
31438;SDS011;18062;48.872;9.220;2022-08-19T14:05:54;60.53;;;55.90;;
31438;SDS011;18062;48.872;9.220;2022-08-19T14:08:20;68.13;;;63.00;;
31438;SDS011;18062;48.872;9.220;2022-08-19T14:10:46;70.20;;;64.17;;
31438;SDS011;18062;48.872;9.220;2022-08-19T14:13:14;58.73;;;54.73;;
31438;SDS011;18062;48.872;9.220;2022-08-19T14:15:41;70.93;;;65.00;;
31438;SDS011;18062;48.872;9.220;2022-08-19T14:18:07;64.07;;;59.27;;
31438;SDS011;18062;48.872;9.220;2022-08-19T14:20:34;86.37;;;80.83;;
31438;SDS011;18062;48.872;9.220;2022-08-19T14:23:00;72.27;;;67.37;;
31438;SDS011;18062;48.872;9.220;2022-08-19T14:25:28;72.97;;;67.90;;
31438;SDS011;18062;48.872;9.220;2022-08-19T14:27:54;77.00;;;71.23;;
31438;SDS011;18062;48.872;9.220;2022-08-19T14:30:22;73.07;;;67.80;;
31438;SDS011;18062;48.872;9.220;2022-08-19T14:32:50;68.80;;;63.90;;
31438;SDS011;18062;48.872;9.220;2022-08-19T14:35:16;75.03;;;68.73;;